Terminal Aerodrome Forecast
Issued by NWS

Current Version | Previous Version | Text Only | Print | Product List | Glossary On
Versions: 1 2 3 4 5 6 7 8 9 10 11 12 13 14 15 16
000
FTUS44 KLZK 161100
TAFBPK
TAF
KBPK 161120Z 1612/1712 14004KT P6SM FEW250
     FM161500 16010G18KT P6SM FEW250
     FM170000 15006KT P6SM SKC
     FM170600 14003KT P6SM SKC=

USA.gov is the U.S. government's official web portal to all federal, state and local government web resources and services.